sensor_id;sensor_type;location;lat;lon;timestamp;P1;durP1;ratioP1;P2;durP2;ratioP2
47113;SDS011;32867;51.556;6.832;2023-07-02T00:04:04;8.93;;;4.40;;
47113;SDS011;32867;51.556;6.832;2023-07-02T00:09:12;9.82;;;4.55;;
47113;SDS011;32867;51.556;6.832;2023-07-02T00:14:13;8.45;;;4.10;;
47113;SDS011;32867;51.556;6.832;2023-07-02T00:19:14;8.73;;;4.97;;
47113;SDS011;32867;51.556;6.832;2023-07-02T00:24:15;7.85;;;4.55;;
47113;SDS011;32867;51.556;6.832;2023-07-02T00:29:16;9.82;;;4.63;;
47113;SDS011;32867;51.556;6.832;2023-07-02T00:34:17;8.27;;;4.68;;
47113;SDS011;32867;51.556;6.832;2023-07-02T00:39:18;7.72;;;4.80;;
47113;SDS011;32867;51.556;6.832;2023-07-02T00:44:19;13.57;;;5.38;;
47113;SDS011;32867;51.556;6.832;2023-07-02T00:49:20;10.80;;;5.10;;
47113;SDS011;32867;51.556;6.832;2023-07-02T00:54:21;9.18;;;4.68;;
47113;SDS011;32867;51.556;6.832;2023-07-02T00:59:22;13.68;;;5.45;;
47113;SDS011;32867;51.556;6.832;2023-07-02T01:04:22;10.32;;;5.15;;
47113;SDS011;32867;51.556;6.832;2023-07-02T01:09:27;12.02;;;6.45;;
47113;SDS011;32867;51.556;6.832;2023-07-02T01:24:40;13.80;;;7.05;;
47113;SDS011;32867;51.556;6.832;2023-07-02T01:29:42;13.25;;;6.82;;
47113;SDS011;32867;51.556;6.832;2023-07-02T01:34:46;14.95;;;7.20;;
47113;SDS011;32867;51.556;6.832;2023-07-02T01:39:53;17.83;;;7.43;;
47113;SDS011;32867;51.556;6.832;2023-07-02T01:44:53;11.05;;;5.88;;
47113;SDS011;32867;51.556;6.832;2023-07-02T01:49:54;14.48;;;6.40;;
47113;SDS011;32867;51.556;6.832;2023-07-02T01:54:55;14.60;;;6.85;;
47113;SDS011;32867;51.556;6.832;2023-07-02T01:59:55;13.27;;;6.25;;
47113;SDS011;32867;51.556;6.832;2023-07-02T02:04:59;12.57;;;6.70;;
47113;SDS011;32867;51.556;6.832;2023-07-02T02:09:59;16.05;;;7.15;;
47113;SDS011;32867;51.556;6.832;2023-07-02T02:15:00;15.43;;;7.63;;
47113;SDS011;32867;51.556;6.832;2023-07-02T02:20:01;19.20;;;7.90;;
47113;SDS011;32867;51.556;6.832;2023-07-02T02:25:01;16.60;;;7.10;;
47113;SDS011;32867;51.556;6.832;2023-07-02T02:30:03;17.98;;;7.50;;
47113;SDS011;32867;51.556;6.832;2023-07-02T02:35:08;14.45;;;7.90;;
47113;SDS011;32867;51.556;6.832;2023-07-02T02:40:10;17.33;;;8.18;;
47113;SDS011;32867;51.556;6.832;2023-07-02T02:45:12;18.88;;;9.32;;
47113;SDS011;32867;51.556;6.832;2023-07-02T02:50:13;19.27;;;8.63;;
47113;SDS011;32867;51.556;6.832;2023-07-02T02:55:14;16.90;;;8.73;;
47113;SDS011;32867;51.556;6.832;2023-07-02T03:00:15;19.95;;;9.68;;
47113;SDS011;32867;51.556;6.832;2023-07-02T03:05:17;23.90;;;10.70;;
47113;SDS011;32867;51.556;6.832;2023-07-02T03:10:17;23.27;;;10.20;;
47113;SDS011;32867;51.556;6.832;2023-07-02T03:15:18;20.20;;;10.48;;
47113;SDS011;32867;51.556;6.832;2023-07-02T03:20:19;22.92;;;10.98;;
47113;SDS011;32867;51.556;6.832;2023-07-02T03:25:20;23.95;;;11.13;;
47113;SDS011;32867;51.556;6.832;2023-07-02T03:30:20;22.42;;;11.35;;
47113;SDS011;32867;51.556;6.832;2023-07-02T03:35:21;24.52;;;11.23;;
47113;SDS011;32867;51.556;6.832;2023-07-02T03:40:21;19.27;;;9.75;;
47113;SDS011;32867;51.556;6.832;2023-07-02T03:45:22;23.80;;;10.90;;
47113;SDS011;32867;51.556;6.832;2023-07-02T03:50:23;24.85;;;11.23;;
47113;SDS011;32867;51.556;6.832;2023-07-02T03:55:24;22.98;;;11.50;;
47113;SDS011;32867;51.556;6.832;2023-07-02T04:00:25;30.73;;;12.43;;
47113;SDS011;32867;51.556;6.832;2023-07-02T04:05:26;25.48;;;12.30;;
47113;SDS011;32867;51.556;6.832;2023-07-02T04:10:26;30.02;;;13.57;;
47113;SDS011;32867;51.556;6.832;2023-07-02T04:15:27;25.88;;;13.57;;
47113;SDS011;32867;51.556;6.832;2023-07-02T04:20:27;26.75;;;12.45;;
47113;SDS011;32867;51.556;6.832;2023-07-02T04:25:28;26.75;;;12.65;;
47113;SDS011;32867;51.556;6.832;2023-07-02T04:30:29;23.92;;;12.93;;
47113;SDS011;32867;51.556;6.832;2023-07-02T04:35:30;27.85;;;13.63;;
47113;SDS011;32867;51.556;6.832;2023-07-02T04:40:30;29.38;;;14.18;;
47113;SDS011;32867;51.556;6.832;2023-07-02T04:45:32;27.52;;;13.82;;
47113;SDS011;32867;51.556;6.832;2023-07-02T04:50:36;31.92;;;15.70;;
47113;SDS011;32867;51.556;6.832;2023-07-02T04:55:37;28.05;;;14.90;;
47113;SDS011;32867;51.556;6.832;2023-07-02T05:00:37;27.70;;;14.18;;
47113;SDS011;32867;51.556;6.832;2023-07-02T05:05:38;22.75;;;13.48;;
47113;SDS011;32867;51.556;6.832;2023-07-02T05:10:38;29.88;;;14.10;;
47113;SDS011;32867;51.556;6.832;2023-07-02T05:15:39;30.77;;;15.40;;
47113;SDS011;32867;51.556;6.832;2023-07-02T05:20:40;27.77;;;15.13;;
47113;SDS011;32867;51.556;6.832;2023-07-02T05:25:41;29.05;;;12.93;;
47113;SDS011;32867;51.556;6.832;2023-07-02T05:30:41;27.63;;;13.90;;
47113;SDS011;32867;51.556;6.832;2023-07-02T05:35:42;27.52;;;13.25;;
47113;SDS011;32867;51.556;6.832;2023-07-02T05:40:43;30.00;;;14.60;;
47113;SDS011;32867;51.556;6.832;2023-07-02T05:45:43;30.17;;;13.68;;
47113;SDS011;32867;51.556;6.832;2023-07-02T05:50:44;25.63;;;13.85;;
47113;SDS011;32867;51.556;6.832;2023-07-02T05:55:45;28.05;;;14.10;;
47113;SDS011;32867;51.556;6.832;2023-07-02T06:00:46;27.38;;;13.25;;
47113;SDS011;32867;51.556;6.832;2023-07-02T06:05:49;32.05;;;13.18;;
47113;SDS011;32867;51.556;6.832;2023-07-02T06:10:50;25.92;;;13.07;;
47113;SDS011;32867;51.556;6.832;2023-07-02T06:15:51;28.20;;;12.30;;
47113;SDS011;32867;51.556;6.832;2023-07-02T06:27:14;23.50;;;11.13;;
47113;SDS011;32867;51.556;6.832;2023-07-02T06:32:14;22.38;;;10.93;;
47113;SDS011;32867;51.556;6.832;2023-07-02T06:37:15;26.17;;;11.80;;
47113;SDS011;32867;51.556;6.832;2023-07-02T06:42:16;23.98;;;11.57;;
47113;SDS011;32867;51.556;6.832;2023-07-02T06:47:18;26.02;;;11.23;;
47113;SDS011;32867;51.556;6.832;2023-07-02T06:52:18;19.83;;;10.75;;
47113;SDS011;32867;51.556;6.832;2023-07-02T06:57:19;22.60;;;11.00;;
47113;SDS011;32867;51.556;6.832;2023-07-02T07:02:20;25.77;;;11.27;;
47113;SDS011;32867;51.556;6.832;2023-07-02T07:07:21;22.98;;;10.70;;
47113;SDS011;32867;51.556;6.832;2023-07-02T07:12:21;24.67;;;10.57;;
47113;SDS011;32867;51.556;6.832;2023-07-02T07:17:22;20.05;;;9.98;;
47113;SDS011;32867;51.556;6.832;2023-07-02T07:22:23;26.30;;;10.38;;
47113;SDS011;32867;51.556;6.832;2023-07-02T07:27:24;20.45;;;9.60;;
47113;SDS011;32867;51.556;6.832;2023-07-02T07:32:24;20.38;;;11.50;;
47113;SDS011;32867;51.556;6.832;2023-07-02T07:37:25;22.83;;;9.98;;
47113;SDS011;32867;51.556;6.832;2023-07-02T07:42:26;27.05;;;10.25;;
47113;SDS011;32867;51.556;6.832;2023-07-02T07:47:26;24.95;;;10.75;;
47113;SDS011;32867;51.556;6.832;2023-07-02T07:52:27;19.73;;;10.13;;
47113;SDS011;32867;51.556;6.832;2023-07-02T07:57:28;19.73;;;9.13;;
47113;SDS011;32867;51.556;6.832;2023-07-02T08:02:28;23.83;;;9.13;;
47113;SDS011;32867;51.556;6.832;2023-07-02T08:07:30;21.30;;;9.95;;
47113;SDS011;32867;51.556;6.832;2023-07-02T08:12:31;21.85;;;9.75;;
47113;SDS011;32867;51.556;6.832;2023-07-02T08:17:32;18.00;;;8.98;;
47113;SDS011;32867;51.556;6.832;2023-07-02T08:22:32;15.63;;;7.38;;
47113;SDS011;32867;51.556;6.832;2023-07-02T08:27:33;19.60;;;8.07;;
47113;SDS011;32867;51.556;6.832;2023-07-02T08:32:36;21.98;;;8.52;;
47113;SDS011;32867;51.556;6.832;2023-07-02T08:37:36;15.73;;;7.53;;
47113;SDS011;32867;51.556;6.832;2023-07-02T08:42:37;16.08;;;8.15;;
47113;SDS011;32867;51.556;6.832;2023-07-02T08:47:38;15.57;;;7.00;;
47113;SDS011;32867;51.556;6.832;2023-07-02T08:52:39;14.18;;;6.68;;
47113;SDS011;32867;51.556;6.832;2023-07-02T08:57:43;13.65;;;6.90;;
47113;SDS011;32867;51.556;6.832;2023-07-02T09:02:49;14.23;;;6.70;;
47113;SDS011;32867;51.556;6.832;2023-07-02T09:07:50;16.90;;;6.57;;
47113;SDS011;32867;51.556;6.832;2023-07-02T09:13:01;16.42;;;7.72;;
47113;SDS011;32867;51.556;6.832;2023-07-02T09:18:14;15.05;;;7.57;;
47113;SDS011;32867;51.556;6.832;2023-07-02T09:23:15;15.65;;;7.22;;
47113;SDS011;32867;51.556;6.832;2023-07-02T09:28:21;13.65;;;6.07;;
47113;SDS011;32867;51.556;6.832;2023-07-02T09:33:27;13.77;;;6.97;;
47113;SDS011;32867;51.556;6.832;2023-07-02T09:38:28;12.32;;;5.97;;
47113;SDS011;32867;51.556;6.832;2023-07-02T09:43:29;14.80;;;6.80;;
47113;SDS011;32867;51.556;6.832;2023-07-02T09:48:31;15.10;;;6.50;;
47113;SDS011;32867;51.556;6.832;2023-07-02T09:53:35;14.18;;;6.50;;
47113;SDS011;32867;51.556;6.832;2023-07-02T09:58:35;15.80;;;7.50;;
47113;SDS011;32867;51.556;6.832;2023-07-02T10:03:36;14.25;;;6.60;;
47113;SDS011;32867;51.556;6.832;2023-07-02T10:08:37;15.52;;;6.43;;
47113;SDS011;32867;51.556;6.832;2023-07-02T10:13:38;13.90;;;6.85;;
47113;SDS011;32867;51.556;6.832;2023-07-02T10:18:39;14.73;;;6.65;;
47113;SDS011;32867;51.556;6.832;2023-07-02T10:23:40;16.52;;;7.32;;
47113;SDS011;32867;51.556;6.832;2023-07-02T10:28:41;12.25;;;6.70;;
47113;SDS011;32867;51.556;6.832;2023-07-02T10:33:45;14.82;;;6.53;;
47113;SDS011;32867;51.556;6.832;2023-07-02T10:38:47;17.17;;;6.95;;
47113;SDS011;32867;51.556;6.832;2023-07-02T10:43:48;12.18;;;6.05;;
47113;SDS011;32867;51.556;6.832;2023-07-02T10:48:52;17.95;;;7.13;;
47113;SDS011;32867;51.556;6.832;2023-07-02T10:54:00;16.05;;;7.20;;
47113;SDS011;32867;51.556;6.832;2023-07-02T10:59:02;13.98;;;6.65;;
47113;SDS011;32867;51.556;6.832;2023-07-02T11:04:04;14.98;;;6.75;;
47113;SDS011;32867;51.556;6.832;2023-07-02T11:09:15;16.73;;;6.70;;
47113;SDS011;32867;51.556;6.832;2023-07-02T11:14:25;15.45;;;6.88;;
47113;SDS011;32867;51.556;6.832;2023-07-02T11:19:27;15.98;;;5.90;;
47113;SDS011;32867;51.556;6.832;2023-07-02T11:24:32;11.20;;;5.95;;
47113;SDS011;32867;51.556;6.832;2023-07-02T11:29:35;11.40;;;5.55;;
47113;SDS011;32867;51.556;6.832;2023-07-02T11:34:39;13.95;;;6.32;;
47113;SDS011;32867;51.556;6.832;2023-07-02T11:39:42;11.68;;;5.93;;
47113;SDS011;32867;51.556;6.832;2023-07-02T11:44:43;12.82;;;6.03;;
47113;SDS011;32867;51.556;6.832;2023-07-02T11:49:44;15.95;;;6.47;;
47113;SDS011;32867;51.556;6.832;2023-07-02T11:54:45;14.80;;;6.40;;
47113;SDS011;32867;51.556;6.832;2023-07-02T11:59:45;12.48;;;6.00;;
47113;SDS011;32867;51.556;6.832;2023-07-02T12:04:46;14.18;;;6.32;;
47113;SDS011;32867;51.556;6.832;2023-07-02T12:09:47;14.73;;;6.20;;
47113;SDS011;32867;51.556;6.832;2023-07-02T12:14:47;12.13;;;5.60;;
47113;SDS011;32867;51.556;6.832;2023-07-02T12:19:48;13.27;;;5.90;;
47113;SDS011;32867;51.556;6.832;2023-07-02T12:24:49;13.40;;;6.25;;
47113;SDS011;32867;51.556;6.832;2023-07-02T12:29:50;11.43;;;6.18;;
47113;SDS011;32867;51.556;6.832;2023-07-02T12:34:51;14.43;;;6.22;;
47113;SDS011;32867;51.556;6.832;2023-07-02T12:39:51;14.40;;;6.43;;
47113;SDS011;32867;51.556;6.832;2023-07-02T12:44:52;13.90;;;6.78;;
47113;SDS011;32867;51.556;6.832;2023-07-02T12:49:52;13.75;;;6.78;;
47113;SDS011;32867;51.556;6.832;2023-07-02T12:54:53;18.48;;;6.65;;
47113;SDS011;32867;51.556;6.832;2023-07-02T12:59:54;15.07;;;7.00;;
47113;SDS011;32867;51.556;6.832;2023-07-02T13:04:55;12.73;;;6.40;;
47113;SDS011;32867;51.556;6.832;2023-07-02T13:09:56;13.82;;;6.25;;
47113;SDS011;32867;51.556;6.832;2023-07-02T13:14:56;19.15;;;7.45;;
47113;SDS011;32867;51.556;6.832;2023-07-02T13:19:58;15.63;;;8.35;;
47113;SDS011;32867;51.556;6.832;2023-07-02T13:24:59;14.82;;;8.05;;
47113;SDS011;32867;51.556;6.832;2023-07-02T13:30:00;15.52;;;8.38;;
47113;SDS011;32867;51.556;6.832;2023-07-02T13:35:00;17.98;;;8.05;;
47113;SDS011;32867;51.556;6.832;2023-07-02T13:40:01;16.95;;;8.35;;
47113;SDS011;32867;51.556;6.832;2023-07-02T13:45:04;15.75;;;7.95;;
47113;SDS011;32867;51.556;6.832;2023-07-02T13:50:05;16.85;;;8.25;;
47113;SDS011;32867;51.556;6.832;2023-07-02T13:55:06;16.65;;;8.07;;
47113;SDS011;32867;51.556;6.832;2023-07-02T14:00:08;15.73;;;7.63;;
47113;SDS011;32867;51.556;6.832;2023-07-02T14:05:09;16.38;;;8.23;;
47113;SDS011;32867;51.556;6.832;2023-07-02T14:10:09;17.13;;;7.45;;
47113;SDS011;32867;51.556;6.832;2023-07-02T14:15:12;15.15;;;7.38;;
47113;SDS011;32867;51.556;6.832;2023-07-02T14:20:13;17.55;;;7.82;;
47113;SDS011;32867;51.556;6.832;2023-07-02T14:25:13;16.80;;;7.97;;
47113;SDS011;32867;51.556;6.832;2023-07-02T14:30:14;16.27;;;7.85;;
47113;SDS011;32867;51.556;6.832;2023-07-02T14:35:15;17.10;;;8.27;;
47113;SDS011;32867;51.556;6.832;2023-07-02T14:40:16;17.75;;;8.23;;
47113;SDS011;32867;51.556;6.832;2023-07-02T14:45:17;15.45;;;7.28;;
47113;SDS011;32867;51.556;6.832;2023-07-02T14:50:17;16.83;;;8.05;;
47113;SDS011;32867;51.556;6.832;2023-07-02T14:55:18;16.05;;;7.55;;
47113;SDS011;32867;51.556;6.832;2023-07-02T15:00:19;16.95;;;8.07;;
47113;SDS011;32867;51.556;6.832;2023-07-02T15:05:19;18.02;;;7.15;;
47113;SDS011;32867;51.556;6.832;2023-07-02T15:10:20;18.98;;;7.45;;
47113;SDS011;32867;51.556;6.832;2023-07-02T15:15:21;13.57;;;6.75;;
47113;SDS011;32867;51.556;6.832;2023-07-02T15:20:22;15.50;;;6.93;;
47113;SDS011;32867;51.556;6.832;2023-07-02T15:25:24;18.17;;;6.40;;
47113;SDS011;32867;51.556;6.832;2023-07-02T15:30:25;13.60;;;6.45;;
47113;SDS011;32867;51.556;6.832;2023-07-02T15:35:25;14.02;;;6.30;;
47113;SDS011;32867;51.556;6.832;2023-07-02T15:40:26;13.93;;;5.93;;
47113;SDS011;32867;51.556;6.832;2023-07-02T15:45:28;12.50;;;5.90;;
47113;SDS011;32867;51.556;6.832;2023-07-02T15:50:28;12.60;;;6.20;;
47113;SDS011;32867;51.556;6.832;2023-07-02T15:55:30;13.50;;;5.75;;
47113;SDS011;32867;51.556;6.832;2023-07-02T16:00:34;11.65;;;5.22;;
47113;SDS011;32867;51.556;6.832;2023-07-02T16:05:37;15.48;;;6.07;;
47113;SDS011;32867;51.556;6.832;2023-07-02T16:10:44;12.80;;;6.18;;
47113;SDS011;32867;51.556;6.832;2023-07-02T16:15:45;12.52;;;5.65;;
47113;SDS011;32867;51.556;6.832;2023-07-02T16:20:53;15.00;;;5.93;;
47113;SDS011;32867;51.556;6.832;2023-07-02T16:25:56;15.35;;;6.15;;
47113;SDS011;32867;51.556;6.832;2023-07-02T16:30:58;15.23;;;5.78;;
47113;SDS011;32867;51.556;6.832;2023-07-02T16:35:59;12.85;;;5.57;;
47113;SDS011;32867;51.556;6.832;2023-07-02T16:41:03;11.73;;;6.07;;
47113;SDS011;32867;51.556;6.832;2023-07-02T16:46:05;12.15;;;6.13;;
47113;SDS011;32867;51.556;6.832;2023-07-02T16:51:06;13.82;;;5.35;;
47113;SDS011;32867;51.556;6.832;2023-07-02T16:56:07;13.70;;;5.80;;
47113;SDS011;32867;51.556;6.832;2023-07-02T17:01:10;10.55;;;5.53;;
47113;SDS011;32867;51.556;6.832;2023-07-02T17:06:18;12.68;;;5.57;;
47113;SDS011;32867;51.556;6.832;2023-07-02T17:11:19;13.32;;;6.00;;
47113;SDS011;32867;51.556;6.832;2023-07-02T17:16:19;12.15;;;5.30;;
47113;SDS011;32867;51.556;6.832;2023-07-02T17:21:20;10.55;;;5.00;;
47113;SDS011;32867;51.556;6.832;2023-07-02T17:26:21;10.30;;;5.50;;
47113;SDS011;32867;51.556;6.832;2023-07-02T17:31:21;13.18;;;6.15;;
47113;SDS011;32867;51.556;6.832;2023-07-02T17:36:22;11.25;;;4.90;;
47113;SDS011;32867;51.556;6.832;2023-07-02T17:41:23;13.25;;;5.43;;
47113;SDS011;32867;51.556;6.832;2023-07-02T17:46:23;11.95;;;5.20;;
47113;SDS011;32867;51.556;6.832;2023-07-02T17:51:24;12.32;;;5.45;;
47113;SDS011;32867;51.556;6.832;2023-07-02T17:56:25;11.98;;;5.30;;
47113;SDS011;32867;51.556;6.832;2023-07-02T18:01:25;10.07;;;4.32;;
47113;SDS011;32867;51.556;6.832;2023-07-02T18:06:26;10.68;;;4.80;;
47113;SDS011;32867;51.556;6.832;2023-07-02T18:11:27;9.43;;;4.75;;
47113;SDS011;32867;51.556;6.832;2023-07-02T18:16:27;11.10;;;5.00;;
47113;SDS011;32867;51.556;6.832;2023-07-02T18:21:28;10.95;;;4.90;;
47113;SDS011;32867;51.556;6.832;2023-07-02T18:26:30;9.25;;;4.60;;
47113;SDS011;32867;51.556;6.832;2023-07-02T18:31:30;11.13;;;5.22;;
47113;SDS011;32867;51.556;6.832;2023-07-02T18:36:31;9.70;;;4.35;;
47113;SDS011;32867;51.556;6.832;2023-07-02T18:41:32;10.02;;;4.45;;
47113;SDS011;32867;51.556;6.832;2023-07-02T18:46:32;12.98;;;4.95;;
47113;SDS011;32867;51.556;6.832;2023-07-02T18:51:33;11.32;;;4.68;;
47113;SDS011;32867;51.556;6.832;2023-07-02T18:56:34;12.43;;;5.10;;
47113;SDS011;32867;51.556;6.832;2023-07-02T19:01:34;9.82;;;4.40;;
47113;SDS011;32867;51.556;6.832;2023-07-02T19:06:35;8.45;;;3.92;;
47113;SDS011;32867;51.556;6.832;2023-07-02T19:11:36;7.22;;;3.50;;
47113;SDS011;32867;51.556;6.832;2023-07-02T19:16:36;8.73;;;4.15;;
47113;SDS011;32867;51.556;6.832;2023-07-02T19:21:37;9.77;;;4.10;;
47113;SDS011;32867;51.556;6.832;2023-07-02T19:26:38;8.57;;;4.35;;
47113;SDS011;32867;51.556;6.832;2023-07-02T19:31:38;9.90;;;5.50;;
47113;SDS011;32867;51.556;6.832;2023-07-02T19:36:45;8.32;;;4.20;;
47113;SDS011;32867;51.556;6.832;2023-07-02T19:41:47;5.68;;;3.22;;
47113;SDS011;32867;51.556;6.832;2023-07-02T19:46:48;8.13;;;3.72;;
47113;SDS011;32867;51.556;6.832;2023-07-02T19:51:48;7.05;;;3.70;;
47113;SDS011;32867;51.556;6.832;2023-07-02T19:56:50;8.80;;;4.70;;
47113;SDS011;32867;51.556;6.832;2023-07-02T20:01:51;9.35;;;4.15;;
47113;SDS011;32867;51.556;6.832;2023-07-02T20:06:51;11.50;;;4.53;;
47113;SDS011;32867;51.556;6.832;2023-07-02T20:11:52;11.80;;;5.18;;
47113;SDS011;32867;51.556;6.832;2023-07-02T20:16:52;11.48;;;5.00;;
47113;SDS011;32867;51.556;6.832;2023-07-02T20:21:53;10.63;;;5.10;;
47113;SDS011;32867;51.556;6.832;2023-07-02T20:26:55;12.07;;;4.63;;
47113;SDS011;32867;51.556;6.832;2023-07-02T20:31:57;11.05;;;4.60;;
47113;SDS011;32867;51.556;6.832;2023-07-02T20:36:58;14.35;;;5.45;;
47113;SDS011;32867;51.556;6.832;2023-07-02T20:41:58;10.15;;;5.15;;
47113;SDS011;32867;51.556;6.832;2023-07-02T20:46:59;13.90;;;5.35;;
47113;SDS011;32867;51.556;6.832;2023-07-02T20:52:00;14.20;;;5.47;;
47113;SDS011;32867;51.556;6.832;2023-07-02T20:57:01;14.07;;;5.15;;
47113;SDS011;32867;51.556;6.832;2023-07-02T21:02:02;10.82;;;5.45;;
47113;SDS011;32867;51.556;6.832;2023-07-02T21:07:03;12.55;;;4.85;;
47113;SDS011;32867;51.556;6.832;2023-07-02T21:12:04;13.15;;;5.35;;
47113;SDS011;32867;51.556;6.832;2023-07-02T21:17:05;12.05;;;5.35;;
47113;SDS011;32867;51.556;6.832;2023-07-02T21:22:09;11.32;;;5.30;;
47113;SDS011;32867;51.556;6.832;2023-07-02T21:27:10;11.82;;;5.20;;
47113;SDS011;32867;51.556;6.832;2023-07-02T21:32:11;12.30;;;5.10;;
47113;SDS011;32867;51.556;6.832;2023-07-02T21:37:11;13.13;;;6.03;;
47113;SDS011;32867;51.556;6.832;2023-07-02T21:42:12;10.68;;;4.88;;
47113;SDS011;32867;51.556;6.832;2023-07-02T21:47:13;10.43;;;4.97;;
47113;SDS011;32867;51.556;6.832;2023-07-02T21:52:13;12.55;;;5.38;;
47113;SDS011;32867;51.556;6.832;2023-07-02T21:57:14;13.90;;;6.07;;
47113;SDS011;32867;51.556;6.832;2023-07-02T22:02:15;11.55;;;6.05;;
47113;SDS011;32867;51.556;6.832;2023-07-02T22:07:15;9.30;;;4.85;;
47113;SDS011;32867;51.556;6.832;2023-07-02T22:12:16;12.25;;;5.25;;
47113;SDS011;32867;51.556;6.832;2023-07-02T22:17:16;12.30;;;5.78;;
47113;SDS011;32867;51.556;6.832;2023-07-02T22:22:17;14.90;;;5.72;;
47113;SDS011;32867;51.556;6.832;2023-07-02T22:27:18;16.33;;;6.05;;
47113;SDS011;32867;51.556;6.832;2023-07-02T22:32:19;11.48;;;5.32;;
47113;SDS011;32867;51.556;6.832;2023-07-02T22:37:21;15.60;;;6.45;;
47113;SDS011;32867;51.556;6.832;2023-07-02T22:42:22;11.80;;;5.22;;
47113;SDS011;32867;51.556;6.832;2023-07-02T22:47:23;11.85;;;5.13;;
47113;SDS011;32867;51.556;6.832;2023-07-02T22:52:24;17.85;;;5.70;;
47113;SDS011;32867;51.556;6.832;2023-07-02T22:57:24;12.13;;;4.68;;
47113;SDS011;32867;51.556;6.832;2023-07-02T23:02:25;16.80;;;5.38;;
47113;SDS011;32867;51.556;6.832;2023-07-02T23:07:27;16.35;;;5.32;;
47113;SDS011;32867;51.556;6.832;2023-07-02T23:12:27;13.20;;;5.10;;
47113;SDS011;32867;51.556;6.832;2023-07-02T23:17:28;12.57;;;4.38;;
47113;SDS011;32867;51.556;6.832;2023-07-02T23:22:28;15.65;;;4.53;;
47113;SDS011;32867;51.556;6.832;2023-07-02T23:27:29;12.75;;;3.95;;
47113;SDS011;32867;51.556;6.832;2023-07-02T23:32:29;18.05;;;4.40;;
47113;SDS011;32867;51.556;6.832;2023-07-02T23:37:30;13.60;;;4.03;;
47113;SDS011;32867;51.556;6.832;2023-07-02T23:42:32;11.98;;;3.53;;
47113;SDS011;32867;51.556;6.832;2023-07-02T23:47:33;16.70;;;4.20;;
47113;SDS011;32867;51.556;6.832;2023-07-02T23:52:34;12.38;;;4.18;;
47113;SDS011;32867;51.556;6.832;2023-07-02T23:57:38;14.65;;;3.92;;
